Flight Track Log - Related Links

Times and Time Zones

All times are in EDT time to prevent confusion due to time zone crossing. See the MTN7503 flight status page for this flight to view local times or setup timezone preferences in your user account.

Time Position Orientation Groundspeed Altitude Reporting Facility
EDT Latitude Longitude Course Direction KTS MPH feet Rate Location/Type
Mon 07:55:28 PM 35.1028 -77.1408 309° West 171 197 3,000  Level Washington Center
Mon 07:56:29 PM 35.1294 -77.1869 305° West 171 197 4,100 1,240 Climbing Washington Center
Mon 07:57:29 PM 35.1558 -77.2256 310° West 166 191 5,500 1,271 Climbing Washington Center
Mon 07:58:27 PM 35.1825 -77.2692 307° West 161 185 6,600 1,059 Climbing Washington Center
Mon 07:59:00 PM 35.2828 -77.4156 301° West  Level FlightAware Approximate
Mon 07:59:28 PM 35.2131 -77.3131 310° West 161 185 7,600  Level Washington Center
Mon 08:00:00 PM 35.3139 -77.4707 309° West  Level FlightAware Approximate
Mon 08:00:29 PM 35.2417 -77.3594 307° West 161 185 8,700  Level Washington Center
Mon 08:01:27 PM 35.2722 -77.4061 309° West 168 193 9,700 1,008 Climbing Washington Center
Mon 08:02:28 PM 35.3050 -77.4550 309° West 175 201 10,700 984 Climbing Washington Center
Mon 08:03:29 PM 35.3333 -77.5042 305° West 175 201 11,700 958 Climbing Washington Center
Mon 08:04:27 PM 35.3681 -77.5533 311° West 180 207 12,600 864 Climbing Washington Center
Mon 08:05:27 PM 35.3922 -77.6100 298° West 180 207 13,400 744 Climbing Washington Center
Mon 08:06:28 PM 35.4161 -77.6642 298° West 180 207 14,100 295 Climbing Washington Center
Mon 08:07:29 PM 35.4422 -77.7311 296° West 193 222 14,000 -50 Descending Washington Center
Mon 08:08:29 PM 35.4722 -77.8033 297° West 217 250 14,000  Level Washington Center
Mon 08:09:28 PM 35.5042 -77.8781 298° West 232 267 14,000  Level Washington Center
Mon 08:10:29 PM 35.5339 -77.9531 296° West 244 281 14,000  Level Washington Center
Mon 08:11:29 PM 35.5639 -78.0228 298° West 244 281 14,000  Level Washington Center
Mon 08:12:27 PM 35.5936 -78.0953 297° West 239 275 14,000  Level Washington Center
Mon 08:13:27 PM 35.6256 -78.1678 298° West 239 275 14,000  Level Washington Center
Mon 08:14:28 PM 35.6531 -78.2403 295° West 239 275 14,000  Level Washington Center
Mon 08:15:27 PM 35.6850 -78.3131 298° West 239 275 14,000  Level Washington Center
Mon 08:16:28 PM 35.7144 -78.3881 296° West 239 275 14,000  Level Washington Center
Mon 08:17:28 PM 35.7442 -78.4608 297° West 239 275 14,000  Level Washington Center
Mon 08:18:29 PM 35.7736 -78.5361 296° West 239 275 14,000  Level Washington Center
Mon 08:19:29 PM 35.8011 -78.6064 296° West 239 275 14,000  Level Washington Center
Mon 08:20:28 PM 35.8306 -78.6739 298° West 239 275 14,000  Level Washington Center
Mon 08:21:29 PM 35.8578 -78.7469 295° West 239 275 14,000  Level Washington Center
Mon 08:22:29 PM 35.8767 -78.8194 288° West 239 275 14,000  Level Washington Center
Mon 08:23:27 PM 35.8808 -78.8989 274° West 228 262 14,000  Level Washington Center
Mon 08:24:28 PM 35.8850 -78.9761 274° West 228 262 14,000 -197 Level Washington Center
Mon 08:25:29 PM 35.8908 -79.0583 275° West 233 268 13,600 -504 Descending Washington Center
Mon 08:26:27 PM 35.8967 -79.1458 275° West 238 274 13,000 -621 Descending Washington Center
Mon 08:28:00 PM 35.9000 -79.2508 270° West  Level FlightAware Approximate
Mon 08:35:00 PM 35.9994 -79.6987 302° West  Level FlightAware Approximate
Mon 08:36:00 PM 36.0219 -79.7604 302° West  Level FlightAware Approximate
Mon 08:37:00 PM 36.0459 -79.8210 292° West  Level FlightAware Approximate
Mon 08:38:00 PM 36.0669 -79.8837 310° West  Level FlightAware Approximate
Mon 08:39:00 PM 36.1000 -79.9333 310° West  Level FlightAware Approximate
Mon 08:40:00 PM 36.1013 -79.9411 310° West  Level Estimated
Mon 08:41:00 PM 36.1000 -79.9333 310° West  Level FlightAware Approximate
Mon 08:42:00 PM 36.1013 -79.9411 310° West  Level Estimated
Mon 08:43:00 PM 36.1000 -79.9333 310° West  Level FlightAware Approximate

Login

Don't have an account? Register now (free) for customized features, flight alerts, and more!